sensor_id;sensor_type;location;lat;lon;timestamp;pressure;altitude;pressure_sealevel;temperature;humidity
9261;BME280;4667;42.726;23.252;2023-03-24T00:01:06;95331.84;;;7.63;100.00
9261;BME280;4667;42.726;23.252;2023-03-24T00:03:33;95329.22;;;7.67;100.00
9261;BME280;4667;42.726;23.252;2023-03-24T00:06:02;95329.91;;;7.60;100.00
9261;BME280;4667;42.726;23.252;2023-03-24T00:08:31;95327.13;;;7.57;100.00
9261;BME280;4667;42.726;23.252;2023-03-24T00:11:00;95330.22;;;7.55;100.00
9261;BME280;4667;42.726;23.252;2023-03-24T00:13:28;95324.50;;;7.60;100.00
9261;BME280;4667;42.726;23.252;2023-03-24T00:15:58;95336.28;;;7.49;100.00
9261;BME280;4667;42.726;23.252;2023-03-24T00:18:24;95328.56;;;7.47;100.00
9261;BME280;4667;42.726;23.252;2023-03-24T00:20:52;95328.25;;;7.26;100.00
9261;BME280;4667;42.726;23.252;2023-03-24T00:23:23;95325.59;;;7.29;100.00
9261;BME280;4667;42.726;23.252;2023-03-24T00:25:58;95322.03;;;7.22;100.00
9261;BME280;4667;42.726;23.252;2023-03-24T00:28:27;95322.50;;;7.27;100.00
9261;BME280;4667;42.726;23.252;2023-03-24T00:30:53;95334.72;;;7.21;100.00
9261;BME280;4667;42.726;23.252;2023-03-24T00:33:22;95322.03;;;7.22;100.00
9261;BME280;4667;42.726;23.252;2023-03-24T00:35:49;95321.50;;;7.13;100.00
9261;BME280;4667;42.726;23.252;2023-03-24T00:38:17;95322.28;;;7.13;100.00
9261;BME280;4667;42.726;23.252;2023-03-24T00:40:44;95319.84;;;7.05;100.00
9261;BME280;4667;42.726;23.252;2023-03-24T00:43:14;95315.66;;;7.07;100.00
9261;BME280;4667;42.726;23.252;2023-03-24T00:45:41;95321.75;;;7.04;100.00
9261;BME280;4667;42.726;23.252;2023-03-24T00:48:10;95309.25;;;6.92;100.00
9261;BME280;4667;42.726;23.252;2023-03-24T00:50:43;95318.13;;;6.93;100.00
9261;BME280;4667;42.726;23.252;2023-03-24T00:53:10;95320.41;;;6.91;100.00
9261;BME280;4667;42.726;23.252;2023-03-24T00:55:40;95317.66;;;6.87;100.00
9261;BME280;4667;42.726;23.252;2023-03-24T00:58:07;95321.47;;;6.86;100.00
9261;BME280;4667;42.726;23.252;2023-03-24T01:00:33;95318.00;;;6.86;100.00
9261;BME280;4667;42.726;23.252;2023-03-24T01:03:07;95320.59;;;6.79;100.00
9261;BME280;4667;42.726;23.252;2023-03-24T01:05:34;95323.69;;;6.81;100.00
9261;BME280;4667;42.726;23.252;2023-03-24T01:08:04;95316.03;;;6.83;100.00
9261;BME280;4667;42.726;23.252;2023-03-24T01:10:34;95319.25;;;6.92;100.00
9261;BME280;4667;42.726;23.252;2023-03-24T01:13:07;95316.88;;;6.87;100.00
9261;BME280;4667;42.726;23.252;2023-03-24T01:15:34;95320.00;;;6.89;100.00
9261;BME280;4667;42.726;23.252;2023-03-24T01:18:02;95317.00;;;6.94;100.00
9261;BME280;4667;42.726;23.252;2023-03-24T01:20:32;95311.25;;;6.95;100.00
9261;BME280;4667;42.726;23.252;2023-03-24T01:23:00;95312.38;;;6.94;100.00
9261;BME280;4667;42.726;23.252;2023-03-24T01:25:28;95303.94;;;6.96;100.00
9261;BME280;4667;42.726;23.252;2023-03-24T01:27:56;95302.63;;;6.86;100.00
9261;BME280;4667;42.726;23.252;2023-03-24T01:30:25;95307.13;;;7.02;100.00
9261;BME280;4667;42.726;23.252;2023-03-24T01:32:52;95304.03;;;7.03;100.00
9261;BME280;4667;42.726;23.252;2023-03-24T01:35:19;95310.59;;;7.02;100.00
9261;BME280;4667;42.726;23.252;2023-03-24T01:37:46;95295.41;;;6.90;100.00
9261;BME280;4667;42.726;23.252;2023-03-24T01:40:18;95300.13;;;6.97;100.00
9261;BME280;4667;42.726;23.252;2023-03-24T01:42:47;95300.84;;;6.94;100.00
9261;BME280;4667;42.726;23.252;2023-03-24T01:45:41;95306.19;;;6.90;100.00
9261;BME280;4667;42.726;23.252;2023-03-24T01:48:12;95300.38;;;6.88;100.00
9261;BME280;4667;42.726;23.252;2023-03-24T01:50:41;95304.53;;;6.86;100.00
9261;BME280;4667;42.726;23.252;2023-03-24T01:53:09;95303.00;;;6.85;100.00
9261;BME280;4667;42.726;23.252;2023-03-24T01:55:36;95303.66;;;6.78;100.00
9261;BME280;4667;42.726;23.252;2023-03-24T01:58:05;95300.59;;;6.80;100.00
9261;BME280;4667;42.726;23.252;2023-03-24T02:00:33;95309.41;;;6.77;100.00
9261;BME280;4667;42.726;23.252;2023-03-24T02:03:08;95310.13;;;6.74;100.00
9261;BME280;4667;42.726;23.252;2023-03-24T02:05:37;95304.34;;;6.72;100.00
9261;BME280;4667;42.726;23.252;2023-03-24T02:08:11;95310.91;;;6.74;100.00
9261;BME280;4667;42.726;23.252;2023-03-24T02:10:40;95311.44;;;6.61;100.00
9261;BME280;4667;42.726;23.252;2023-03-24T02:13:09;95312.88;;;6.54;100.00
9261;BME280;4667;42.726;23.252;2023-03-24T02:15:44;95309.47;;;6.57;100.00
9261;BME280;4667;42.726;23.252;2023-03-24T02:18:18;95313.84;;;6.66;100.00
9261;BME280;4667;42.726;23.252;2023-03-24T02:21:27;95311.06;;;6.62;100.00
9261;BME280;4667;42.726;23.252;2023-03-24T02:24:32;95314.84;;;6.57;100.00
9261;BME280;4667;42.726;23.252;2023-03-24T02:27:21;95319.28;;;6.69;100.00
9261;BME280;4667;42.726;23.252;2023-03-24T02:30:25;95308.47;;;6.66;100.00
9261;BME280;4667;42.726;23.252;2023-03-24T02:33:12;95304.22;;;6.65;100.00
9261;BME280;4667;42.726;23.252;2023-03-24T02:42:17;95301.88;;;6.63;100.00
9261;BME280;4667;42.726;23.252;2023-03-24T02:44:55;95285.50;;;6.72;100.00
9261;BME280;4667;42.726;23.252;2023-03-24T02:47:32;95280.50;;;6.74;100.00
9261;BME280;4667;42.726;23.252;2023-03-24T02:50:07;95276.63;;;6.71;100.00
9261;BME280;4667;42.726;23.252;2023-03-24T02:52:41;95274.84;;;6.79;100.00
9261;BME280;4667;42.726;23.252;2023-03-24T02:55:14;95283.00;;;6.86;100.00
9261;BME280;4667;42.726;23.252;2023-03-24T02:57:48;95283.00;;;6.86;100.00
9261;BME280;4667;42.726;23.252;2023-03-24T03:00:21;95277.03;;;6.96;100.00
9261;BME280;4667;42.726;23.252;2023-03-24T03:02:55;95283.59;;;6.98;100.00
9261;BME280;4667;42.726;23.252;2023-03-24T03:05:27;95282.41;;;6.96;100.00
9261;BME280;4667;42.726;23.252;2023-03-24T03:07:59;95282.44;;;7.00;100.00
9261;BME280;4667;42.726;23.252;2023-03-24T03:10:30;95281.16;;;6.90;100.00
9261;BME280;4667;42.726;23.252;2023-03-24T03:13:05;95274.34;;;6.96;100.00
9261;BME280;4667;42.726;23.252;2023-03-24T03:15:36;95274.69;;;6.94;100.00
9261;BME280;4667;42.726;23.252;2023-03-24T03:18:08;95273.94;;;6.97;100.00
9261;BME280;4667;42.726;23.252;2023-03-24T03:20:42;95269.34;;;6.98;100.00
9261;BME280;4667;42.726;23.252;2023-03-24T03:23:16;95284.31;;;6.95;100.00
9261;BME280;4667;42.726;23.252;2023-03-24T03:25:48;95279.28;;;6.94;100.00
9261;BME280;4667;42.726;23.252;2023-03-24T03:28:22;95286.56;;;6.90;100.00
9261;BME280;4667;42.726;23.252;2023-03-24T03:30:57;95282.00;;;6.94;100.00
9261;BME280;4667;42.726;23.252;2023-03-24T03:33:32;95287.69;;;6.89;100.00
9261;BME280;4667;42.726;23.252;2023-03-24T03:36:03;95275.72;;;6.86;100.00
9261;BME280;4667;42.726;23.252;2023-03-24T03:38:40;95275.78;;;6.90;100.00
9261;BME280;4667;42.726;23.252;2023-03-24T03:41:10;95268.38;;;6.83;100.00
9261;BME280;4667;42.726;23.252;2023-03-24T03:43:40;95274.25;;;6.92;100.00
9261;BME280;4667;42.726;23.252;2023-03-24T03:46:07;95271.94;;;6.91;100.00
9261;BME280;4667;42.726;23.252;2023-03-24T03:48:35;95278.41;;;6.86;100.00
9261;BME280;4667;42.726;23.252;2023-03-24T03:51:03;95289.06;;;6.79;100.00
9261;BME280;4667;42.726;23.252;2023-03-24T03:53:35;95283.66;;;6.79;100.00
9261;BME280;4667;42.726;23.252;2023-03-24T03:56:04;95292.06;;;6.74;100.00
9261;BME280;4667;42.726;23.252;2023-03-24T03:58:31;95287.75;;;6.70;100.00
9261;BME280;4667;42.726;23.252;2023-03-24T04:01:00;95293.13;;;6.70;100.00
9261;BME280;4667;42.726;23.252;2023-03-24T04:03:41;95287.63;;;6.63;100.00
9261;BME280;4667;42.726;23.252;2023-03-24T04:06:23;95294.09;;;6.58;100.00
9261;BME280;4667;42.726;23.252;2023-03-24T04:08:56;95290.19;;;6.55;100.00
9261;BME280;4667;42.726;23.252;2023-03-24T04:11:48;95285.84;;;6.47;100.00
9261;BME280;4667;42.726;23.252;2023-03-24T04:14:40;95289.53;;;6.39;100.00
9261;BME280;4667;42.726;23.252;2023-03-24T04:17:21;95291.09;;;6.40;100.00
9261;BME280;4667;42.726;23.252;2023-03-24T04:20:02;95291.53;;;6.42;100.00
9261;BME280;4667;42.726;23.252;2023-03-24T04:22:39;95297.78;;;6.27;100.00
9261;BME280;4667;42.726;23.252;2023-03-24T04:25:15;95294.78;;;6.32;100.00
9261;BME280;4667;42.726;23.252;2023-03-24T04:27:47;95295.81;;;6.24;100.00
9261;BME280;4667;42.726;23.252;2023-03-24T04:30:25;95291.88;;;6.18;100.00
9261;BME280;4667;42.726;23.252;2023-03-24T04:33:01;95294.59;;;6.22;100.00
9261;BME280;4667;42.726;23.252;2023-03-24T04:35:33;95300.41;;;6.24;100.00
9261;BME280;4667;42.726;23.252;2023-03-24T04:38:03;95296.81;;;6.16;100.00
9261;BME280;4667;42.726;23.252;2023-03-24T04:40:34;95299.50;;;6.16;100.00
9261;BME280;4667;42.726;23.252;2023-03-24T04:43:08;95303.63;;;6.10;100.00
9261;BME280;4667;42.726;23.252;2023-03-24T04:45:39;95309.78;;;6.10;100.00
9261;BME280;4667;42.726;23.252;2023-03-24T04:48:09;95315.50;;;6.09;100.00
9261;BME280;4667;42.726;23.252;2023-03-24T04:50:39;95316.63;;;6.08;100.00
9261;BME280;4667;42.726;23.252;2023-03-24T04:53:08;95321.66;;;6.09;100.00
9261;BME280;4667;42.726;23.252;2023-03-24T04:55:49;95327.38;;;6.08;100.00
9261;BME280;4667;42.726;23.252;2023-03-24T04:58:20;95331.63;;;6.09;100.00
9261;BME280;4667;42.726;23.252;2023-03-24T05:00:48;95329.03;;;6.12;100.00
9261;BME280;4667;42.726;23.252;2023-03-24T05:03:18;95331.28;;;6.10;100.00
9261;BME280;4667;42.726;23.252;2023-03-24T05:05:47;95330.22;;;6.15;100.00
9261;BME280;4667;42.726;23.252;2023-03-24T05:08:14;95330.50;;;6.29;100.00
9261;BME280;4667;42.726;23.252;2023-03-24T05:10:42;95327.94;;;6.36;100.00
9261;BME280;4667;42.726;23.252;2023-03-24T05:13:11;95335.75;;;6.45;100.00
9261;BME280;4667;42.726;23.252;2023-03-24T05:15:38;95335.75;;;6.45;100.00
9261;BME280;4667;42.726;23.252;2023-03-24T05:18:06;95339.41;;;6.56;100.00
9261;BME280;4667;42.726;23.252;2023-03-24T05:20:34;95336.38;;;6.57;100.00
9261;BME280;4667;42.726;23.252;2023-03-24T05:23:01;95342.38;;;6.70;100.00
9261;BME280;4667;42.726;23.252;2023-03-24T05:25:28;95345.22;;;6.81;100.00
9261;BME280;4667;42.726;23.252;2023-03-24T05:27:55;95344.56;;;6.87;100.00
9261;BME280;4667;42.726;23.252;2023-03-24T05:30:22;95340.53;;;6.97;100.00
9261;BME280;4667;42.726;23.252;2023-03-24T05:32:49;95336.34;;;7.03;100.00
9261;BME280;4667;42.726;23.252;2023-03-24T05:35:16;95338.78;;;7.08;100.00
9261;BME280;4667;42.726;23.252;2023-03-24T05:37:44;95341.97;;;7.17;100.00
9261;BME280;4667;42.726;23.252;2023-03-24T05:40:11;95343.25;;;7.27;100.00
9261;BME280;4667;42.726;23.252;2023-03-24T05:42:41;95344.31;;;7.45;100.00
9261;BME280;4667;42.726;23.252;2023-03-24T05:45:09;95351.41;;;7.57;100.00
9261;BME280;4667;42.726;23.252;2023-03-24T05:47:37;95349.94;;;7.63;100.00
9261;BME280;4667;42.726;23.252;2023-03-24T05:50:06;95344.03;;;7.80;100.00
9261;BME280;4667;42.726;23.252;2023-03-24T05:52:32;95350.00;;;7.96;100.00
9261;BME280;4667;42.726;23.252;2023-03-24T05:55:01;95351.63;;;8.04;100.00
9261;BME280;4667;42.726;23.252;2023-03-24T05:57:28;95345.88;;;8.06;100.00
9261;BME280;4667;42.726;23.252;2023-03-24T05:59:55;95341.78;;;8.15;100.00
9261;BME280;4667;42.726;23.252;2023-03-24T06:02:22;95344.38;;;8.08;100.00
9261;BME280;4667;42.726;23.252;2023-03-24T06:04:49;95337.78;;;8.36;100.00
9261;BME280;4667;42.726;23.252;2023-03-24T06:07:17;95339.81;;;8.46;100.00
9261;BME280;4667;42.726;23.252;2023-03-24T06:09:44;95334.53;;;8.56;100.00
9261;BME280;4667;42.726;23.252;2023-03-24T06:12:17;95341.94;;;8.67;100.00
9261;BME280;4667;42.726;23.252;2023-03-24T06:14:45;95345.50;;;8.74;100.00
9261;BME280;4667;42.726;23.252;2023-03-24T06:17:12;95343.56;;;8.75;100.00
9261;BME280;4667;42.726;23.252;2023-03-24T06:19:40;95343.19;;;8.76;100.00
9261;BME280;4667;42.726;23.252;2023-03-24T06:22:15;95348.13;;;8.67;100.00
9261;BME280;4667;42.726;23.252;2023-03-24T06:24:42;95344.66;;;8.70;100.00
9261;BME280;4667;42.726;23.252;2023-03-24T06:27:09;95350.28;;;8.91;100.00
9261;BME280;4667;42.726;23.252;2023-03-24T06:29:38;95352.78;;;9.14;100.00
9261;BME280;4667;42.726;23.252;2023-03-24T06:32:06;95358.97;;;9.15;100.00
9261;BME280;4667;42.726;23.252;2023-03-24T06:34:33;95359.81;;;9.26;100.00
9261;BME280;4667;42.726;23.252;2023-03-24T06:37:00;95349.84;;;9.33;100.00
9261;BME280;4667;42.726;23.252;2023-03-24T06:39:27;95342.09;;;9.32;100.00
9261;BME280;4667;42.726;23.252;2023-03-24T06:41:54;95343.22;;;8.80;100.00
9261;BME280;4667;42.726;23.252;2023-03-24T06:44:21;95352.50;;;9.26;100.00
9261;BME280;4667;42.726;23.252;2023-03-24T06:46:49;95350.34;;;9.46;100.00
9261;BME280;4667;42.726;23.252;2023-03-24T06:49:16;95362.38;;;9.59;100.00
9261;BME280;4667;42.726;23.252;2023-03-24T06:51:43;95355.06;;;9.63;100.00
9261;BME280;4667;42.726;23.252;2023-03-24T06:54:10;95355.53;;;9.79;100.00
9261;BME280;4667;42.726;23.252;2023-03-24T06:56:37;95354.81;;;9.86;100.00
9261;BME280;4667;42.726;23.252;2023-03-24T06:59:04;95353.16;;;9.67;100.00
9261;BME280;4667;42.726;23.252;2023-03-24T07:01:31;95356.34;;;9.83;100.00
9261;BME280;4667;42.726;23.252;2023-03-24T07:04:01;95357.22;;;10.05;100.00
9261;BME280;4667;42.726;23.252;2023-03-24T07:06:27;95360.31;;;10.04;100.00
9261;BME280;4667;42.726;23.252;2023-03-24T07:08:55;95359.53;;;10.03;100.00
9261;BME280;4667;42.726;23.252;2023-03-24T07:11:23;95361.13;;;10.15;100.00
9261;BME280;4667;42.726;23.252;2023-03-24T07:13:49;95370.06;;;10.19;100.00
9261;BME280;4667;42.726;23.252;2023-03-24T07:16:17;95370.41;;;10.07;100.00
9261;BME280;4667;42.726;23.252;2023-03-24T07:18:43;95364.31;;;10.31;100.00
9261;BME280;4667;42.726;23.252;2023-03-24T07:21:12;95368.53;;;10.25;100.00
9261;BME280;4667;42.726;23.252;2023-03-24T07:23:38;95369.41;;;10.50;100.00
9261;BME280;4667;42.726;23.252;2023-03-24T07:26:05;95365.19;;;10.60;100.00
9261;BME280;4667;42.726;23.252;2023-03-24T07:28:33;95365.59;;;10.73;100.00
9261;BME280;4667;42.726;23.252;2023-03-24T07:31:01;95358.28;;;10.84;100.00
9261;BME280;4667;42.726;23.252;2023-03-24T07:33:28;95372.22;;;10.82;100.00
9261;BME280;4667;42.726;23.252;2023-03-24T07:35:56;95351.31;;;10.93;100.00
9261;BME280;4667;42.726;23.252;2023-03-24T07:38:25;95356.75;;;11.22;100.00
9261;BME280;4667;42.726;23.252;2023-03-24T07:40:52;95350.16;;;11.33;100.00
9261;BME280;4667;42.726;23.252;2023-03-24T07:43:19;95359.88;;;11.49;100.00
9261;BME280;4667;42.726;23.252;2023-03-24T07:45:46;95354.81;;;11.58;100.00
9261;BME280;4667;42.726;23.252;2023-03-24T07:48:13;95357.09;;;11.70;100.00
9261;BME280;4667;42.726;23.252;2023-03-24T07:50:40;95361.78;;;11.83;100.00
9261;BME280;4667;42.726;23.252;2023-03-24T07:53:08;95350.47;;;11.99;100.00
9261;BME280;4667;42.726;23.252;2023-03-24T07:55:37;95339.97;;;12.15;100.00
9261;BME280;4667;42.726;23.252;2023-03-24T07:58:05;95343.38;;;12.37;100.00
9261;BME280;4667;42.726;23.252;2023-03-24T08:00:32;95344.13;;;12.34;100.00
9261;BME280;4667;42.726;23.252;2023-03-24T08:03:00;95339.41;;;13.11;100.00
9261;BME280;4667;42.726;23.252;2023-03-24T08:05:29;95327.50;;;13.87;100.00
9261;BME280;4667;42.726;23.252;2023-03-24T08:07:56;95328.41;;;14.45;100.00
9261;BME280;4667;42.726;23.252;2023-03-24T08:10:26;95330.19;;;14.85;97.99
9261;BME280;4667;42.726;23.252;2023-03-24T08:12:57;95326.47;;;15.26;89.22
9261;BME280;4667;42.726;23.252;2023-03-24T08:15:26;95318.00;;;15.90;90.60
9261;BME280;4667;42.726;23.252;2023-03-24T08:17:53;95317.28;;;16.45;86.22
9261;BME280;4667;42.726;23.252;2023-03-24T08:20:21;95318.72;;;17.05;79.22
9261;BME280;4667;42.726;23.252;2023-03-24T08:22:50;95302.50;;;17.63;71.97
9261;BME280;4667;42.726;23.252;2023-03-24T08:25:21;95305.34;;;17.88;73.66
9261;BME280;4667;42.726;23.252;2023-03-24T08:27:49;95307.13;;;18.53;68.02
9261;BME280;4667;42.726;23.252;2023-03-24T08:30:19;95303.53;;;18.27;64.60
9261;BME280;4667;42.726;23.252;2023-03-24T08:32:49;95308.31;;;18.52;64.03
9261;BME280;4667;42.726;23.252;2023-03-24T08:35:18;95298.59;;;19.01;61.09
9261;BME280;4667;42.726;23.252;2023-03-24T08:37:48;95295.53;;;18.87;59.53
9261;BME280;4667;42.726;23.252;2023-03-24T08:40:18;95292.13;;;19.21;57.34
9261;BME280;4667;42.726;23.252;2023-03-24T08:42:48;95289.13;;;19.66;57.32
9261;BME280;4667;42.726;23.252;2023-03-24T08:45:19;95288.63;;;19.80;55.62
9261;BME280;4667;42.726;23.252;2023-03-24T08:47:46;95284.69;;;20.24;54.78
9261;BME280;4667;42.726;23.252;2023-03-24T08:50:13;95280.09;;;20.00;55.37
9261;BME280;4667;42.726;23.252;2023-03-24T08:52:41;95273.53;;;20.41;53.77
9261;BME280;4667;42.726;23.252;2023-03-24T08:55:13;95269.31;;;20.49;52.42
9261;BME280;4667;42.726;23.252;2023-03-24T08:57:40;95263.31;;;20.72;51.65
9261;BME280;4667;42.726;23.252;2023-03-24T09:00:08;95254.25;;;21.02;53.13
9261;BME280;4667;42.726;23.252;2023-03-24T09:02:41;95255.63;;;21.07;51.99
9261;BME280;4667;42.726;23.252;2023-03-24T09:05:09;95258.94;;;20.62;49.96
9261;BME280;4667;42.726;23.252;2023-03-24T09:07:38;95250.25;;;20.94;49.71
9261;BME280;4667;42.726;23.252;2023-03-24T09:10:06;95250.09;;;21.47;49.43
9261;BME280;4667;42.726;23.252;2023-03-24T09:12:34;95250.38;;;21.40;48.39
9261;BME280;4667;42.726;23.252;2023-03-24T09:15:02;95241.38;;;21.57;47.20
9261;BME280;4667;42.726;23.252;2023-03-24T09:17:30;95240.50;;;22.06;45.57
9261;BME280;4667;42.726;23.252;2023-03-24T09:19:58;95240.53;;;22.66;46.18
9261;BME280;4667;42.726;23.252;2023-03-24T09:22:26;95241.03;;;22.56;43.87
9261;BME280;4667;42.726;23.252;2023-03-24T09:24:53;95230.16;;;22.94;43.95
9261;BME280;4667;42.726;23.252;2023-03-24T09:27:20;95231.44;;;23.50;42.87
9261;BME280;4667;42.726;23.252;2023-03-24T09:29:48;95224.31;;;24.35;40.05
9261;BME280;4667;42.726;23.252;2023-03-24T09:32:18;95222.22;;;24.59;40.81
9261;BME280;4667;42.726;23.252;2023-03-24T09:34:45;95215.25;;;24.64;39.57
9261;BME280;4667;42.726;23.252;2023-03-24T09:37:13;95216.00;;;23.82;39.58
9261;BME280;4667;42.726;23.252;2023-03-24T09:39:40;95217.47;;;23.53;39.22
9261;BME280;4667;42.726;23.252;2023-03-24T09:42:16;95213.59;;;23.27;39.48
9261;BME280;4667;42.726;23.252;2023-03-24T09:44:47;95206.63;;;23.79;39.84
9261;BME280;4667;42.726;23.252;2023-03-24T09:47:25;95203.16;;;23.93;40.51
9261;BME280;4667;42.726;23.252;2023-03-24T09:49:57;95208.56;;;24.26;38.99
9261;BME280;4667;42.726;23.252;2023-03-24T09:52:32;95199.69;;;24.22;38.42
9261;BME280;4667;42.726;23.252;2023-03-24T09:55:00;95191.16;;;24.85;37.33
9261;BME280;4667;42.726;23.252;2023-03-24T09:57:33;95188.66;;;25.21;37.04
9261;BME280;4667;42.726;23.252;2023-03-24T10:00:08;95185.31;;;25.32;37.78
9261;BME280;4667;42.726;23.252;2023-03-24T10:02:41;95182.06;;;26.00;37.59
9261;BME280;4667;42.726;23.252;2023-03-24T10:05:12;95183.28;;;25.53;35.81
9261;BME280;4667;42.726;23.252;2023-03-24T10:07:46;95180.19;;;25.86;35.44
9261;BME280;4667;42.726;23.252;2023-03-24T10:10:26;95178.59;;;25.04;35.62
9261;BME280;4667;42.726;23.252;2023-03-24T10:13:05;95172.06;;;24.72;36.00
9261;BME280;4667;42.726;23.252;2023-03-24T10:15:41;95164.19;;;24.85;36.09
9261;BME280;4667;42.726;23.252;2023-03-24T10:18:30;95162.56;;;25.48;36.47
9261;BME280;4667;42.726;23.252;2023-03-24T10:21:06;95162.31;;;25.11;35.19
9261;BME280;4667;42.726;23.252;2023-03-24T10:23:45;95160.91;;;25.56;35.00
9261;BME280;4667;42.726;23.252;2023-03-24T10:26:25;95166.00;;;26.30;34.43
9261;BME280;4667;42.726;23.252;2023-03-24T10:29:14;95161.09;;;26.45;33.03
9261;BME280;4667;42.726;23.252;2023-03-24T10:31:48;95157.94;;;26.95;31.56
9261;BME280;4667;42.726;23.252;2023-03-24T10:34:17;95163.84;;;27.08;30.22
9261;BME280;4667;42.726;23.252;2023-03-24T10:36:44;95154.53;;;26.79;29.79
9261;BME280;4667;42.726;23.252;2023-03-24T10:39:15;95141.31;;;27.06;30.26
9261;BME280;4667;42.726;23.252;2023-03-24T10:41:43;95146.72;;;26.83;32.10
9261;BME280;4667;42.726;23.252;2023-03-24T10:44:11;95148.34;;;26.96;32.07
9261;BME280;4667;42.726;23.252;2023-03-24T10:46:44;95145.53;;;27.38;32.72
9261;BME280;4667;42.726;23.252;2023-03-24T10:49:16;95139.47;;;26.92;32.11
9261;BME280;4667;42.726;23.252;2023-03-24T10:51:44;95132.41;;;27.44;31.71
9261;BME280;4667;42.726;23.252;2023-03-24T10:54:17;95135.59;;;27.80;29.29
9261;BME280;4667;42.726;23.252;2023-03-24T10:56:46;95124.25;;;28.00;28.77
9261;BME280;4667;42.726;23.252;2023-03-24T10:59:22;95142.22;;;27.88;29.51
9261;BME280;4667;42.726;23.252;2023-03-24T11:01:56;95130.28;;;27.71;29.24
9261;BME280;4667;42.726;23.252;2023-03-24T11:04:25;95128.00;;;27.21;29.31
9261;BME280;4667;42.726;23.252;2023-03-24T11:07:00;95130.72;;;27.58;29.23
9261;BME280;4667;42.726;23.252;2023-03-24T11:09:38;95118.41;;;27.81;28.43
9261;BME280;4667;42.726;23.252;2023-03-24T11:12:19;95123.97;;;27.81;28.44
9261;BME280;4667;42.726;23.252;2023-03-24T11:14:47;95117.22;;;27.40;29.08
9261;BME280;4667;42.726;23.252;2023-03-24T11:17:14;95109.81;;;27.26;26.69
9261;BME280;4667;42.726;23.252;2023-03-24T11:19:50;95100.56;;;27.45;27.40
9261;BME280;4667;42.726;23.252;2023-03-24T11:22:17;95099.44;;;28.08;26.61
9261;BME280;4667;42.726;23.252;2023-03-24T11:24:48;95093.63;;;27.94;27.08
9261;BME280;4667;42.726;23.252;2023-03-24T11:27:17;95091.56;;;27.89;27.17
9261;BME280;4667;42.726;23.252;2023-03-24T11:29:48;95080.25;;;28.26;26.93
9261;BME280;4667;42.726;23.252;2023-03-24T11:32:20;95076.69;;;28.42;25.35
9261;BME280;4667;42.726;23.252;2023-03-24T11:34:52;95075.41;;;28.66;25.61
9261;BME280;4667;42.726;23.252;2023-03-24T11:37:23;95071.88;;;28.49;26.22
9261;BME280;4667;42.726;23.252;2023-03-24T11:42:54;95063.25;;;28.58;24.63
9261;BME280;4667;42.726;23.252;2023-03-24T11:45:26;95062.97;;;28.61;22.40
9261;BME280;4667;42.726;23.252;2023-03-24T11:47:56;95062.75;;;28.76;23.74
9261;BME280;4667;42.726;23.252;2023-03-24T11:50:26;95052.88;;;28.58;21.56
9261;BME280;4667;42.726;23.252;2023-03-24T11:53:00;95051.38;;;28.35;22.04
9261;BME280;4667;42.726;23.252;2023-03-24T11:55:42;95048.84;;;28.48;21.93
9261;BME280;4667;42.726;23.252;2023-03-24T11:58:20;95043.25;;;28.03;22.13
9261;BME280;4667;42.726;23.252;2023-03-24T12:00:55;95039.97;;;28.33;22.44
9261;BME280;4667;42.726;23.252;2023-03-24T12:03:43;95034.56;;;28.91;21.95
9261;BME280;4667;42.726;23.252;2023-03-24T12:06:27;95033.16;;;29.31;23.38
9261;BME280;4667;42.726;23.252;2023-03-24T12:09:02;95035.41;;;29.43;21.53
9261;BME280;4667;42.726;23.252;2023-03-24T12:11:45;95034.41;;;28.27;21.68
9261;BME280;4667;42.726;23.252;2023-03-24T12:14:25;95029.69;;;27.35;22.94
9261;BME280;4667;42.726;23.252;2023-03-24T12:16:59;95017.16;;;27.79;22.64
9261;BME280;4667;42.726;23.252;2023-03-24T12:19:50;95017.53;;;27.27;24.04
9261;BME280;4667;42.726;23.252;2023-03-24T12:22:45;95015.66;;;27.94;23.81
9261;BME280;4667;42.726;23.252;2023-03-24T12:25:38;95006.19;;;28.81;22.69
9261;BME280;4667;42.726;23.252;2023-03-24T12:28:35;95002.22;;;29.23;23.01
9261;BME280;4667;42.726;23.252;2023-03-24T12:31:42;94991.66;;;29.57;22.91
9261;BME280;4667;42.726;23.252;2023-03-24T12:37:24;94987.50;;;29.69;25.42
9261;BME280;4667;42.726;23.252;2023-03-24T12:40:30;94976.94;;;29.56;23.40
9261;BME280;4667;42.726;23.252;2023-03-24T12:43:09;94985.69;;;29.77;22.96
9261;BME280;4667;42.726;23.252;2023-03-24T12:45:53;94978.66;;;30.00;22.33
9261;BME280;4667;42.726;23.252;2023-03-24T12:48:47;94971.50;;;29.70;23.71
9261;BME280;4667;42.726;23.252;2023-03-24T12:51:26;94966.84;;;29.83;22.24
9261;BME280;4667;42.726;23.252;2023-03-24T12:54:26;94972.06;;;29.98;21.18
9261;BME280;4667;42.726;23.252;2023-03-24T12:56:59;94965.25;;;30.23;20.95
9261;BME280;4667;42.726;23.252;2023-03-24T12:59:31;94964.72;;;30.25;21.06
9261;BME280;4667;42.726;23.252;2023-03-24T13:02:07;94965.25;;;30.48;20.68
9261;BME280;4667;42.726;23.252;2023-03-24T13:04:41;94956.38;;;30.49;20.16
9261;BME280;4667;42.726;23.252;2023-03-24T13:07:10;94955.16;;;30.39;20.55
9261;BME280;4667;42.726;23.252;2023-03-24T13:09:45;94951.38;;;29.00;22.77
9261;BME280;4667;42.726;23.252;2023-03-24T13:12:31;94942.34;;;28.77;22.84
9261;BME280;4667;42.726;23.252;2023-03-24T13:15:04;94945.72;;;28.42;22.49
9261;BME280;4667;42.726;23.252;2023-03-24T13:17:56;94937.91;;;28.19;22.14
9261;BME280;4667;42.726;23.252;2023-03-24T13:20:45;94938.97;;;27.82;22.87
9261;BME280;4667;42.726;23.252;2023-03-24T13:23:42;94932.13;;;26.63;24.09
9261;BME280;4667;42.726;23.252;2023-03-24T13:26:25;94933.94;;;26.23;23.41
9261;BME280;4667;42.726;23.252;2023-03-24T13:29:15;94939.09;;;26.05;23.70
9261;BME280;4667;42.726;23.252;2023-03-24T13:31:56;94938.94;;;25.82;24.52
9261;BME280;4667;42.726;23.252;2023-03-24T13:34:29;94933.88;;;25.49;24.90
9261;BME280;4667;42.726;23.252;2023-03-24T13:37:11;94936.78;;;24.89;24.73
9261;BME280;4667;42.726;23.252;2023-03-24T13:39:47;94930.06;;;24.95;24.60
9261;BME280;4667;42.726;23.252;2023-03-24T13:42:31;94925.47;;;24.92;25.01
9261;BME280;4667;42.726;23.252;2023-03-24T13:45:23;94924.75;;;25.17;24.96
9261;BME280;4667;42.726;23.252;2023-03-24T13:48:02;94924.06;;;25.54;24.56
9261;BME280;4667;42.726;23.252;2023-03-24T13:50:33;94917.13;;;26.01;24.65